Niagara, Wisconsin
Current Conditions -  °F | °C
As of 8:23 PM on Friday 24 Oct 2014 (Local Time) from KIMT Reporting Station
Scattered Clouds Scattered Clouds  
Wind Chill: 51°   Ceiling: Unl
Heat Index: 51°   Visibility: 10mi
Dew Point: 47°   Wind: 10mph
Humidity: 86%   Direction: 170°S
Pressure: 29.82"   Gusts: NA
Location:  45.77°N, 87.99°W
Report Text: KIMT 250123Z AUTO 17009KT 10SM SCT025 11/08 A2982 RMK AO2 T01060083
Loading
Personal Weather Stations






























Interactive Weather Map
Tropical Storm Tracking
New forecast layout! Learn more

10-Day Weather Forecast

Advertisements
Track Severe Weather on mobile